sensor_id;sensor_type;location;lat;lon;timestamp;pressure;altitude;pressure_sealevel;temperature
59339;BMP280;45117;50.960;5.500;2023-05-29T00:02:08;101204.88;;;14.18
59339;BMP280;45117;50.960;5.500;2023-05-29T00:04:34;101207.66;;;14.14
59339;BMP280;45117;50.960;5.500;2023-05-29T00:07:02;101215.41;;;14.08
59339;BMP280;45117;50.960;5.500;2023-05-29T00:09:28;101216.63;;;14.04
59339;BMP280;45117;50.960;5.500;2023-05-29T00:11:55;101215.91;;;14.00
59339;BMP280;45117;50.960;5.500;2023-05-29T00:14:23;101214.44;;;13.95
59339;BMP280;45117;50.960;5.500;2023-05-29T00:16:50;101211.00;;;13.95
59339;BMP280;45117;50.960;5.500;2023-05-29T00:19:17;101206.38;;;13.92
59339;BMP280;45117;50.960;5.500;2023-05-29T00:21:44;101206.84;;;13.87
59339;BMP280;45117;50.960;5.500;2023-05-29T00:24:13;101205.03;;;13.80
59339;BMP280;45117;50.960;5.500;2023-05-29T00:26:39;101215.88;;;13.76
59339;BMP280;45117;50.960;5.500;2023-05-29T00:29:06;101201.00;;;13.65
59339;BMP280;45117;50.960;5.500;2023-05-29T00:31:34;101225.22;;;13.68
59339;BMP280;45117;50.960;5.500;2023-05-29T00:34:00;101230.66;;;13.65
59339;BMP280;45117;50.960;5.500;2023-05-29T00:36:27;101231.88;;;13.60
59339;BMP280;45117;50.960;5.500;2023-05-29T00:38:54;101235.03;;;13.55
59339;BMP280;45117;50.960;5.500;2023-05-29T00:41:21;101237.00;;;13.51
59339;BMP280;45117;50.960;5.500;2023-05-29T00:43:47;101232.38;;;13.48
59339;BMP280;45117;50.960;5.500;2023-05-29T00:46:15;101233.22;;;13.45
59339;BMP280;45117;50.960;5.500;2023-05-29T00:48:43;101237.84;;;13.41
59339;BMP280;45117;50.960;5.500;2023-05-29T00:51:10;101233.28;;;13.38
59339;BMP280;45117;50.960;5.500;2023-05-29T00:53:38;101234.91;;;13.32
59339;BMP280;45117;50.960;5.500;2023-05-29T00:56:06;101236.81;;;13.31
59339;BMP280;45117;50.960;5.500;2023-05-29T00:58:33;101249.56;;;13.27
59339;BMP280;45117;50.960;5.500;2023-05-29T01:01:00;101239.59;;;13.20
59339;BMP280;45117;50.960;5.500;2023-05-29T01:03:26;101243.91;;;13.14
59339;BMP280;45117;50.960;5.500;2023-05-29T01:05:54;101242.03;;;13.11
59339;BMP280;45117;50.960;5.500;2023-05-29T01:08:23;101247.44;;;13.08
59339;BMP280;45117;50.960;5.500;2023-05-29T01:10:51;101241.34;;;13.00
59339;BMP280;45117;50.960;5.500;2023-05-29T01:13:24;101243.34;;;12.96
59339;BMP280;45117;50.960;5.500;2023-05-29T01:15:58;101248.00;;;12.92
59339;BMP280;45117;50.960;5.500;2023-05-29T01:18:34;101246.88;;;12.86
59339;BMP280;45117;50.960;5.500;2023-05-29T01:21:08;101247.28;;;12.84
59339;BMP280;45117;50.960;5.500;2023-05-29T01:24:07;101248.06;;;12.81
59339;BMP280;45117;50.960;5.500;2023-05-29T01:26:52;101253.13;;;12.76
59339;BMP280;45117;50.960;5.500;2023-05-29T01:29:23;101243.97;;;12.66
59339;BMP280;45117;50.960;5.500;2023-05-29T01:31:50;101255.91;;;12.65
59339;BMP280;45117;50.960;5.500;2023-05-29T01:34:17;101260.94;;;12.59
59339;BMP280;45117;50.960;5.500;2023-05-29T01:36:44;101262.50;;;12.53
59339;BMP280;45117;50.960;5.500;2023-05-29T01:39:11;101261.00;;;12.49
59339;BMP280;45117;50.960;5.500;2023-05-29T01:41:38;101267.59;;;12.44
59339;BMP280;45117;50.960;5.500;2023-05-29T01:44:08;101272.97;;;12.41
59339;BMP280;45117;50.960;5.500;2023-05-29T01:46:35;101274.56;;;12.34
59339;BMP280;45117;50.960;5.500;2023-05-29T01:49:03;101269.59;;;12.29
59339;BMP280;45117;50.960;5.500;2023-05-29T01:51:30;101271.94;;;12.24
59339;BMP280;45117;50.960;5.500;2023-05-29T01:53:58;101280.03;;;12.20
59339;BMP280;45117;50.960;5.500;2023-05-29T01:56:26;101276.19;;;12.18
59339;BMP280;45117;50.960;5.500;2023-05-29T01:58:52;101281.59;;;12.14
59339;BMP280;45117;50.960;5.500;2023-05-29T02:01:21;101278.56;;;12.05
59339;BMP280;45117;50.960;5.500;2023-05-29T02:03:47;101293.56;;;12.02
59339;BMP280;45117;50.960;5.500;2023-05-29T02:06:14;101285.47;;;11.99
59339;BMP280;45117;50.960;5.500;2023-05-29T02:08:41;101285.88;;;11.97
59339;BMP280;45117;50.960;5.500;2023-05-29T02:11:07;101287.81;;;11.93
59339;BMP280;45117;50.960;5.500;2023-05-29T02:13:34;101282.06;;;11.91
59339;BMP280;45117;50.960;5.500;2023-05-29T02:16:00;101285.13;;;11.90
59339;BMP280;45117;50.960;5.500;2023-05-29T02:18:28;101290.94;;;11.85
59339;BMP280;45117;50.960;5.500;2023-05-29T02:20:55;101284.38;;;11.82
59339;BMP280;45117;50.960;5.500;2023-05-29T02:23:21;101287.13;;;11.78
59339;BMP280;45117;50.960;5.500;2023-05-29T02:25:48;101280.59;;;11.72
59339;BMP280;45117;50.960;5.500;2023-05-29T02:28:14;101275.97;;;11.69
59339;BMP280;45117;50.960;5.500;2023-05-29T02:30:41;101275.19;;;11.69
59339;BMP280;45117;50.960;5.500;2023-05-29T02:33:07;101277.91;;;11.65
59339;BMP280;45117;50.960;5.500;2023-05-29T02:35:35;101277.53;;;11.60
59339;BMP280;45117;50.960;5.500;2023-05-29T02:38:01;101288.69;;;11.55
59339;BMP280;45117;50.960;5.500;2023-05-29T02:40:28;101287.94;;;11.50
59339;BMP280;45117;50.960;5.500;2023-05-29T02:42:54;101286.00;;;11.44
59339;BMP280;45117;50.960;5.500;2023-05-29T02:45:21;101280.25;;;11.38
59339;BMP280;45117;50.960;5.500;2023-05-29T02:47:47;101276.81;;;11.34
59339;BMP280;45117;50.960;5.500;2023-05-29T02:50:14;101281.03;;;11.32
59339;BMP280;45117;50.960;5.500;2023-05-29T02:52:42;101276.81;;;11.27
59339;BMP280;45117;50.960;5.500;2023-05-29T02:55:08;101279.13;;;11.21
59339;BMP280;45117;50.960;5.500;2023-05-29T02:57:35;101293.72;;;11.17
59339;BMP280;45117;50.960;5.500;2023-05-29T03:00:02;101284.91;;;11.09
59339;BMP280;45117;50.960;5.500;2023-05-29T03:02:31;101279.16;;;11.04
59339;BMP280;45117;50.960;5.500;2023-05-29T03:04:58;101283.75;;;11.03
59339;BMP280;45117;50.960;5.500;2023-05-29T03:07:25;101285.66;;;10.99
59339;BMP280;45117;50.960;5.500;2023-05-29T03:09:53;101297.56;;;10.95
59339;BMP280;45117;50.960;5.500;2023-05-29T03:12:20;101292.53;;;10.89
59339;BMP280;45117;50.960;5.500;2023-05-29T03:14:47;101287.56;;;10.88
59339;BMP280;45117;50.960;5.500;2023-05-29T03:17:13;101295.22;;;10.82
59339;BMP280;45117;50.960;5.500;2023-05-29T03:19:39;101290.63;;;10.79
59339;BMP280;45117;50.960;5.500;2023-05-29T03:22:06;101291.38;;;10.76
59339;BMP280;45117;50.960;5.500;2023-05-29T03:24:32;101285.25;;;10.72
59339;BMP280;45117;50.960;5.500;2023-05-29T03:27:01;101302.91;;;10.70
59339;BMP280;45117;50.960;5.500;2023-05-29T03:29:29;101295.59;;;10.67
59339;BMP280;45117;50.960;5.500;2023-05-29T03:31:55;101297.09;;;10.60
59339;BMP280;45117;50.960;5.500;2023-05-29T03:34:22;101294.81;;;10.59
59339;BMP280;45117;50.960;5.500;2023-05-29T03:36:48;101297.09;;;10.57
59339;BMP280;45117;50.960;5.500;2023-05-29T03:39:15;101303.25;;;10.54
59339;BMP280;45117;50.960;5.500;2023-05-29T03:41:41;101290.97;;;10.53
59339;BMP280;45117;50.960;5.500;2023-05-29T03:44:09;101298.22;;;10.49
59339;BMP280;45117;50.960;5.500;2023-05-29T03:46:36;101299.75;;;10.50
59339;BMP280;45117;50.960;5.500;2023-05-29T03:49:02;101297.06;;;10.50
59339;BMP280;45117;50.960;5.500;2023-05-29T03:51:29;101309.34;;;10.51
59339;BMP280;45117;50.960;5.500;2023-05-29T03:53:56;101314.34;;;10.45
59339;BMP280;45117;50.960;5.500;2023-05-29T03:56:22;101310.47;;;10.43
59339;BMP280;45117;50.960;5.500;2023-05-29T03:58:49;101313.56;;;10.45
59339;BMP280;45117;50.960;5.500;2023-05-29T04:01:17;101313.56;;;10.45
59339;BMP280;45117;50.960;5.500;2023-05-29T04:03:44;101317.75;;;10.42
59339;BMP280;45117;50.960;5.500;2023-05-29T04:06:11;101315.06;;;10.42
59339;BMP280;45117;50.960;5.500;2023-05-29T04:08:38;101320.06;;;10.40
59339;BMP280;45117;50.960;5.500;2023-05-29T04:11:04;101320.81;;;10.41
59339;BMP280;45117;50.960;5.500;2023-05-29T04:13:31;101323.53;;;10.48
59339;BMP280;45117;50.960;5.500;2023-05-29T04:15:57;101327.75;;;10.49
59339;BMP280;45117;50.960;5.500;2023-05-29T04:18:25;101333.88;;;10.49
59339;BMP280;45117;50.960;5.500;2023-05-29T04:20:52;101340.41;;;10.48
59339;BMP280;45117;50.960;5.500;2023-05-29T04:23:19;101345.00;;;10.48
59339;BMP280;45117;50.960;5.500;2023-05-29T04:25:45;101345.00;;;10.48
59339;BMP280;45117;50.960;5.500;2023-05-29T04:28:12;101354.22;;;10.50
59339;BMP280;45117;50.960;5.500;2023-05-29T04:30:38;101365.72;;;10.51
59339;BMP280;45117;50.960;5.500;2023-05-29T04:33:07;101371.13;;;10.54
59339;BMP280;45117;50.960;5.500;2023-05-29T04:35:36;101358.47;;;10.55
59339;BMP280;45117;50.960;5.500;2023-05-29T04:38:02;101365.72;;;10.51
59339;BMP280;45117;50.960;5.500;2023-05-29T04:40:30;101361.16;;;10.55
59339;BMP280;45117;50.960;5.500;2023-05-29T04:42:57;101362.34;;;10.68
59339;BMP280;45117;50.960;5.500;2023-05-29T04:45:25;101366.19;;;10.81
59339;BMP280;45117;50.960;5.500;2023-05-29T04:47:53;101364.66;;;10.77
59339;BMP280;45117;50.960;5.500;2023-05-29T04:50:22;101370.84;;;10.91
59339;BMP280;45117;50.960;5.500;2023-05-29T04:52:50;101356.28;;;11.07
59339;BMP280;45117;50.960;5.500;2023-05-29T04:55:17;101365.84;;;10.93
59339;BMP280;45117;50.960;5.500;2023-05-29T04:57:43;101366.28;;;11.20
59339;BMP280;45117;50.960;5.500;2023-05-29T05:00:10;101362.47;;;11.54
59339;BMP280;45117;50.960;5.500;2023-05-29T05:02:40;101369.34;;;11.69
59339;BMP280;45117;50.960;5.500;2023-05-29T05:05:07;101382.75;;;12.08
59339;BMP280;45117;50.960;5.500;2023-05-29T05:07:33;101377.28;;;13.51
59339;BMP280;45117;50.960;5.500;2023-05-29T05:10:01;101386.53;;;14.52
59339;BMP280;45117;50.960;5.500;2023-05-29T05:12:28;101387.44;;;14.96
59339;BMP280;45117;50.960;5.500;2023-05-29T05:14:55;101396.50;;;14.86
59339;BMP280;45117;50.960;5.500;2023-05-29T05:17:21;101389.97;;;15.93
59339;BMP280;45117;50.960;5.500;2023-05-29T05:19:48;101402.59;;;15.80
59339;BMP280;45117;50.960;5.500;2023-05-29T05:22:15;101398.66;;;16.04
59339;BMP280;45117;50.960;5.500;2023-05-29T05:24:41;101403.31;;;16.04
59339;BMP280;45117;50.960;5.500;2023-05-29T05:27:09;101402.44;;;16.95
59339;BMP280;45117;50.960;5.500;2023-05-29T05:29:36;101411.03;;;16.41
59339;BMP280;45117;50.960;5.500;2023-05-29T05:32:02;101412.81;;;16.12
59339;BMP280;45117;50.960;5.500;2023-05-29T05:34:29;101405.78;;;17.15
59339;BMP280;45117;50.960;5.500;2023-05-29T05:36:56;101403.06;;;18.15
59339;BMP280;45117;50.960;5.500;2023-05-29T05:39:22;101415.94;;;17.86
59339;BMP280;45117;50.960;5.500;2023-05-29T05:41:49;101412.34;;;17.02
59339;BMP280;45117;50.960;5.500;2023-05-29T05:44:16;101422.75;;;18.19
59339;BMP280;45117;50.960;5.500;2023-05-29T05:46:43;101426.44;;;18.76
59339;BMP280;45117;50.960;5.500;2023-05-29T05:49:10;101424.16;;;18.11
59339;BMP280;45117;50.960;5.500;2023-05-29T05:51:36;101420.69;;;19.43
59339;BMP280;45117;50.960;5.500;2023-05-29T05:54:03;101429.19;;;18.13
59339;BMP280;45117;50.960;5.500;2023-05-29T05:56:29;101422.41;;;18.81
59339;BMP280;45117;50.960;5.500;2023-05-29T05:58:56;101433.59;;;18.95
59339;BMP280;45117;50.960;5.500;2023-05-29T06:01:24;101421.47;;;18.36
59339;BMP280;45117;50.960;5.500;2023-05-29T06:03:50;101425.69;;;18.76
59339;BMP280;45117;50.960;5.500;2023-05-29T06:06:17;101420.56;;;18.78
59339;BMP280;45117;50.960;5.500;2023-05-29T06:08:44;101427.69;;;17.95
59339;BMP280;45117;50.960;5.500;2023-05-29T06:11:11;101417.47;;;17.87
59339;BMP280;45117;50.960;5.500;2023-05-29T06:13:37;101426.44;;;18.76
59339;BMP280;45117;50.960;5.500;2023-05-29T06:16:04;101431.56;;;19.21
59339;BMP280;45117;50.960;5.500;2023-05-29T06:18:32;101435.72;;;18.53
59339;BMP280;45117;50.960;5.500;2023-05-29T06:20:58;101427.81;;;18.93
59339;BMP280;45117;50.960;5.500;2023-05-29T06:23:26;101439.16;;;18.16
59339;BMP280;45117;50.960;5.500;2023-05-29T06:25:52;101433.00;;;17.44
59339;BMP280;45117;50.960;5.500;2023-05-29T06:28:19;101430.53;;;18.93
59339;BMP280;45117;50.960;5.500;2023-05-29T06:30:46;101435.25;;;18.93
59339;BMP280;45117;50.960;5.500;2023-05-29T06:33:12;101423.13;;;18.47
59339;BMP280;45117;50.960;5.500;2023-05-29T06:35:40;101433.38;;;18.01
59339;BMP280;45117;50.960;5.500;2023-05-29T06:38:06;101433.63;;;18.57
59339;BMP280;45117;50.960;5.500;2023-05-29T06:40:33;101427.53;;;18.02
59339;BMP280;45117;50.960;5.500;2023-05-29T06:43:00;101439.00;;;19.08
59339;BMP280;45117;50.960;5.500;2023-05-29T06:45:26;101435.50;;;19.08
59339;BMP280;45117;50.960;5.500;2023-05-29T06:47:53;101451.06;;;18.34
59339;BMP280;45117;50.960;5.500;2023-05-29T06:50:20;101444.34;;;18.99
59339;BMP280;45117;50.960;5.500;2023-05-29T06:52:48;101452.56;;;19.21
59339;BMP280;45117;50.960;5.500;2023-05-29T06:55:14;101460.06;;;18.57
59339;BMP280;45117;50.960;5.500;2023-05-29T06:57:41;101453.88;;;18.31
59339;BMP280;45117;50.960;5.500;2023-05-29T07:00:09;101459.28;;;17.47
59339;BMP280;45117;50.960;5.500;2023-05-29T07:02:36;101466.03;;;18.14
59339;BMP280;45117;50.960;5.500;2023-05-29T07:05:03;101455.94;;;18.39
59339;BMP280;45117;50.960;5.500;2023-05-29T07:07:30;101459.28;;;18.05
59339;BMP280;45117;50.960;5.500;2023-05-29T07:09:58;101466.13;;;18.10
59339;BMP280;45117;50.960;5.500;2023-05-29T07:12:24;101460.19;;;18.66
59339;BMP280;45117;50.960;5.500;2023-05-29T07:14:51;101452.88;;;19.01
59339;BMP280;45117;50.960;5.500;2023-05-29T07:17:17;101458.06;;;17.65
59339;BMP280;45117;50.960;5.500;2023-05-29T07:19:44;101454.81;;;18.24
59339;BMP280;45117;50.960;5.500;2023-05-29T07:22:10;101451.06;;;18.34
59339;BMP280;45117;50.960;5.500;2023-05-29T07:24:37;101457.47;;;19.26
59339;BMP280;45117;50.960;5.500;2023-05-29T07:27:05;101451.25;;;18.65
59339;BMP280;45117;50.960;5.500;2023-05-29T07:29:31;101455.94;;;18.27
59339;BMP280;45117;50.960;5.500;2023-05-29T07:31:58;101458.19;;;18.03
59339;BMP280;45117;50.960;5.500;2023-05-29T07:34:24;101463.22;;;17.75
59339;BMP280;45117;50.960;5.500;2023-05-29T07:37:00;101460.72;;;17.52
59339;BMP280;45117;50.960;5.500;2023-05-29T07:39:26;101449.63;;;18.17
59339;BMP280;45117;50.960;5.500;2023-05-29T07:41:53;101462.16;;;18.78
59339;BMP280;45117;50.960;5.500;2023-05-29T07:44:21;101459.06;;;18.89
59339;BMP280;45117;50.960;5.500;2023-05-29T07:46:48;101456.50;;;18.60
59339;BMP280;45117;50.960;5.500;2023-05-29T07:49:14;101456.69;;;18.65
59339;BMP280;45117;50.960;5.500;2023-05-29T07:51:41;101459.53;;;18.75
59339;BMP280;45117;50.960;5.500;2023-05-29T07:54:07;101455.28;;;18.35
59339;BMP280;45117;50.960;5.500;2023-05-29T07:56:34;101449.31;;;18.53
59339;BMP280;45117;50.960;5.500;2023-05-29T07:59:00;101452.34;;;17.75
59339;BMP280;45117;50.960;5.500;2023-05-29T08:01:28;101456.81;;;18.62
59339;BMP280;45117;50.960;5.500;2023-05-29T08:03:55;101452.03;;;18.40
59339;BMP280;45117;50.960;5.500;2023-05-29T08:06:21;101460.41;;;18.71
59339;BMP280;45117;50.960;5.500;2023-05-29T08:08:48;101454.31;;;19.71
59339;BMP280;45117;50.960;5.500;2023-05-29T08:11:15;101459.91;;;19.89
59339;BMP280;45117;50.960;5.500;2023-05-29T08:13:42;101475.06;;;19.47
59339;BMP280;45117;50.960;5.500;2023-05-29T08:16:08;101479.25;;;19.82
59339;BMP280;45117;50.960;5.500;2023-05-29T08:18:36;101475.25;;;19.18
59339;BMP280;45117;50.960;5.500;2023-05-29T08:21:03;101482.19;;;18.71
59339;BMP280;45117;50.960;5.500;2023-05-29T08:23:30;101480.81;;;19.49
59339;BMP280;45117;50.960;5.500;2023-05-29T08:25:57;101471.31;;;19.75
59339;BMP280;45117;50.960;5.500;2023-05-29T08:28:24;101469.81;;;20.36
59339;BMP280;45117;50.960;5.500;2023-05-29T08:30:52;101472.41;;;20.89
59339;BMP280;45117;50.960;5.500;2023-05-29T08:33:18;101470.97;;;20.66
59339;BMP280;45117;50.960;5.500;2023-05-29T08:35:46;101477.28;;;20.85
59339;BMP280;45117;50.960;5.500;2023-05-29T08:38:13;101476.69;;;20.10
59339;BMP280;45117;50.960;5.500;2023-05-29T08:40:40;101480.22;;;19.32
59339;BMP280;45117;50.960;5.500;2023-05-29T08:43:10;101484.16;;;19.31
59339;BMP280;45117;50.960;5.500;2023-05-29T08:45:42;101477.94;;;19.65
59339;BMP280;45117;50.960;5.500;2023-05-29T08:48:10;101473.13;;;19.34
59339;BMP280;45117;50.960;5.500;2023-05-29T08:50:39;101467.75;;;19.65
59339;BMP280;45117;50.960;5.500;2023-05-29T08:53:11;101465.09;;;19.75
59339;BMP280;45117;50.960;5.500;2023-05-29T08:55:37;101469.09;;;19.04
59339;BMP280;45117;50.960;5.500;2023-05-29T08:58:04;101470.66;;;19.49
59339;BMP280;45117;50.960;5.500;2023-05-29T09:00:31;101473.06;;;20.22
59339;BMP280;45117;50.960;5.500;2023-05-29T09:02:58;101477.16;;;19.43
59339;BMP280;45117;50.960;5.500;2023-05-29T09:05:26;101472.91;;;19.85
59339;BMP280;45117;50.960;5.500;2023-05-29T09:07:52;101482.22;;;20.28
59339;BMP280;45117;50.960;5.500;2023-05-29T09:10:21;101470.81;;;19.67
59339;BMP280;45117;50.960;5.500;2023-05-29T09:12:48;101476.47;;;20.75
59339;BMP280;45117;50.960;5.500;2023-05-29T09:15:19;101473.03;;;21.48
59339;BMP280;45117;50.960;5.500;2023-05-29T09:17:49;101491.50;;;20.80
59339;BMP280;45117;50.960;5.500;2023-05-29T09:20:17;101483.97;;;20.53
59339;BMP280;45117;50.960;5.500;2023-05-29T09:22:52;101486.34;;;20.91
59339;BMP280;45117;50.960;5.500;2023-05-29T09:25:22;101487.28;;;21.52
59339;BMP280;45117;50.960;5.500;2023-05-29T09:27:55;101485.91;;;21.47
59339;BMP280;45117;50.960;5.500;2023-05-29T09:30:33;101495.09;;;20.68
59339;BMP280;45117;50.960;5.500;2023-05-29T09:33:01;101491.50;;;20.80
59339;BMP280;45117;50.960;5.500;2023-05-29T09:35:32;101490.16;;;19.82
59339;BMP280;45117;50.960;5.500;2023-05-29T09:37:59;101497.91;;;21.59
59339;BMP280;45117;50.960;5.500;2023-05-29T09:40:29;101496.22;;;20.88
59339;BMP280;45117;50.960;5.500;2023-05-29T09:43:01;101501.50;;;20.03
59339;BMP280;45117;50.960;5.500;2023-05-29T09:45:29;101489.97;;;20.29
59339;BMP280;45117;50.960;5.500;2023-05-29T09:47:56;101488.44;;;20.69
59339;BMP280;45117;50.960;5.500;2023-05-29T09:50:26;101491.81;;;20.82
59339;BMP280;45117;50.960;5.500;2023-05-29T09:52:53;101501.88;;;21.58
59339;BMP280;45117;50.960;5.500;2023-05-29T09:55:20;101502.66;;;20.63
59339;BMP280;45117;50.960;5.500;2023-05-29T09:57:48;101495.75;;;20.81
59339;BMP280;45117;50.960;5.500;2023-05-29T10:00:15;101499.13;;;21.58
59339;BMP280;45117;50.960;5.500;2023-05-29T10:02:43;101494.81;;;22.59
59339;BMP280;45117;50.960;5.500;2023-05-29T10:05:10;101500.56;;;21.95
59339;BMP280;45117;50.960;5.500;2023-05-29T10:07:43;101488.00;;;21.80
59339;BMP280;45117;50.960;5.500;2023-05-29T10:10:12;101493.34;;;22.49
59339;BMP280;45117;50.960;5.500;2023-05-29T10:12:46;101496.41;;;21.49
59339;BMP280;45117;50.960;5.500;2023-05-29T10:15:16;101500.66;;;21.13
59339;BMP280;45117;50.960;5.500;2023-05-29T10:17:49;101490.34;;;21.54
59339;BMP280;45117;50.960;5.500;2023-05-29T10:20:17;101475.16;;;21.25
59339;BMP280;45117;50.960;5.500;2023-05-29T10:22:47;101488.31;;;21.82
59339;BMP280;45117;50.960;5.500;2023-05-29T10:25:17;101499.69;;;20.40
59339;BMP280;45117;50.960;5.500;2023-05-29T10:27:44;101496.69;;;20.47
59339;BMP280;45117;50.960;5.500;2023-05-29T10:30:20;101504.59;;;19.70
59339;BMP280;45117;50.960;5.500;2023-05-29T10:32:59;101499.56;;;20.92
59339;BMP280;45117;50.960;5.500;2023-05-29T10:35:31;101500.59;;;20.86
59339;BMP280;45117;50.960;5.500;2023-05-29T10:38:10;101499.13;;;21.12
59339;BMP280;45117;50.960;5.500;2023-05-29T10:40:38;101492.13;;;21.39
59339;BMP280;45117;50.960;5.500;2023-05-29T10:43:04;101479.34;;;21.63
59339;BMP280;45117;50.960;5.500;2023-05-29T10:45:51;101497.31;;;21.46
59339;BMP280;45117;50.960;5.500;2023-05-29T10:48:42;101489.91;;;20.51
59339;BMP280;45117;50.960;5.500;2023-05-29T10:51:24;101489.66;;;20.27
59339;BMP280;45117;50.960;5.500;2023-05-29T10:53:51;101483.28;;;20.80
59339;BMP280;45117;50.960;5.500;2023-05-29T10:56:21;101488.97;;;20.45
59339;BMP280;45117;50.960;5.500;2023-05-29T10:58:54;101477.94;;;20.58
59339;BMP280;45117;50.960;5.500;2023-05-29T11:01:23;101482.59;;;21.25
59339;BMP280;45117;50.960;5.500;2023-05-29T11:03:50;101487.28;;;21.52
59339;BMP280;45117;50.960;5.500;2023-05-29T11:06:19;101482.81;;;20.63
59339;BMP280;45117;50.960;5.500;2023-05-29T11:08:47;101485.31;;;21.61
59339;BMP280;45117;50.960;5.500;2023-05-29T11:11:14;101476.56;;;21.90
59339;BMP280;45117;50.960;5.500;2023-05-29T11:13:41;101470.63;;;22.82
59339;BMP280;45117;50.960;5.500;2023-05-29T11:16:20;101474.00;;;21.87
59339;BMP280;45117;50.960;5.500;2023-05-29T11:18:48;101470.44;;;20.98
59339;BMP280;45117;50.960;5.500;2023-05-29T11:21:44;101477.44;;;21.36
59339;BMP280;45117;50.960;5.500;2023-05-29T11:24:21;101468.41;;;21.63
59339;BMP280;45117;50.960;5.500;2023-05-29T11:26:48;101453.28;;;21.44
59339;BMP280;45117;50.960;5.500;2023-05-29T11:29:21;101478.16;;;21.73
59339;BMP280;45117;50.960;5.500;2023-05-29T11:31:49;101462.84;;;21.57
59339;BMP280;45117;50.960;5.500;2023-05-29T11:34:23;101452.88;;;22.53
59339;BMP280;45117;50.960;5.500;2023-05-29T11:36:54;101453.56;;;22.39
59339;BMP280;45117;50.960;5.500;2023-05-29T11:39:20;101452.69;;;22.81
59339;BMP280;45117;50.960;5.500;2023-05-29T11:41:50;101458.25;;;21.82
59339;BMP280;45117;50.960;5.500;2023-05-29T11:44:18;101449.72;;;22.22
59339;BMP280;45117;50.960;5.500;2023-05-29T11:46:45;101444.13;;;21.74
59339;BMP280;45117;50.960;5.500;2023-05-29T11:49:11;101445.66;;;22.08
59339;BMP280;45117;50.960;5.500;2023-05-29T11:51:41;101448.34;;;22.89
59339;BMP280;45117;50.960;5.500;2023-05-29T11:54:08;101441.78;;;22.95
59339;BMP280;45117;50.960;5.500;2023-05-29T11:56:35;101444.34;;;23.14
59339;BMP280;45117;50.960;5.500;2023-05-29T11:59:10;101448.72;;;22.34
59339;BMP280;45117;50.960;5.500;2023-05-29T12:01:37;101438.78;;;23.23
59339;BMP280;45117;50.960;5.500;2023-05-29T12:04:13;101439.06;;;23.40
59339;BMP280;45117;50.960;5.500;2023-05-29T12:06:41;101437.22;;;22.92
59339;BMP280;45117;50.960;5.500;2023-05-29T12:09:08;101444.72;;;23.21
59339;BMP280;45117;50.960;5.500;2023-05-29T12:11:34;101434.81;;;23.39
59339;BMP280;45117;50.960;5.500;2023-05-29T12:14:01;101440.38;;;23.44
59339;BMP280;45117;50.960;5.500;2023-05-29T12:16:30;101439.53;;;23.53
59339;BMP280;45117;50.960;5.500;2023-05-29T12:18:57;101436.16;;;22.27
59339;BMP280;45117;50.960;5.500;2023-05-29T12:21:24;101433.63;;;22.15
59339;BMP280;45117;50.960;5.500;2023-05-29T12:23:53;101426.13;;;23.25
59339;BMP280;45117;50.960;5.500;2023-05-29T12:26:22;101435.22;;;22.78
59339;BMP280;45117;50.960;5.500;2023-05-29T12:28:49;101432.16;;;23.15
59339;BMP280;45117;50.960;5.500;2023-05-29T12:31:26;101437.69;;;22.91
59339;BMP280;45117;50.960;5.500;2023-05-29T12:33:53;101450.69;;;23.05
59339;BMP280;45117;50.960;5.500;2023-05-29T12:36:25;101453.16;;;22.79
59339;BMP280;45117;50.960;5.500;2023-05-29T12:38:53;101440.44;;;22.91
59339;BMP280;45117;50.960;5.500;2023-05-29T12:41:23;101447.81;;;22.61
59339;BMP280;45117;50.960;5.500;2023-05-29T12:43:52;101441.13;;;23.01
59339;BMP280;45117;50.960;5.500;2023-05-29T12:46:20;101445.00;;;23.09
59339;BMP280;45117;50.960;5.500;2023-05-29T12:48:46;101449.22;;;22.95
59339;BMP280;45117;50.960;5.500;2023-05-29T12:51:14;101452.91;;;22.92
59339;BMP280;45117;50.960;5.500;2023-05-29T12:53:41;101449.59;;;22.88
59339;BMP280;45117;50.960;5.500;2023-05-29T12:56:09;101448.34;;;22.74
59339;BMP280;45117;50.960;5.500;2023-05-29T12:58:35;101451.91;;;23.04
59339;BMP280;45117;50.960;5.500;2023-05-29T13:01:02;101454.31;;;22.40
59339;BMP280;45117;50.960;5.500;2023-05-29T13:03:28;101455.41;;;21.49
59339;BMP280;45117;50.960;5.500;2023-05-29T13:05:55;101449.03;;;22.36
59339;BMP280;45117;50.960;5.500;2023-05-29T13:08:21;101452.25;;;22.97
59339;BMP280;45117;50.960;5.500;2023-05-29T13:10:48;101450.59;;;22.52
59339;BMP280;45117;50.960;5.500;2023-05-29T13:13:16;101442.72;;;22.21
59339;BMP280;45117;50.960;5.500;2023-05-29T13:15:43;101456.03;;;21.95
59339;BMP280;45117;50.960;5.500;2023-05-29T13:18:10;101448.03;;;22.24
59339;BMP280;45117;50.960;5.500;2023-05-29T13:20:37;101455.19;;;22.22
59339;BMP280;45117;50.960;5.500;2023-05-29T13:23:03;101451.00;;;22.83
59339;BMP280;45117;50.960;5.500;2023-05-29T13:25:30;101456.94;;;22.82
59339;BMP280;45117;50.960;5.500;2023-05-29T13:27:56;101453.22;;;22.46
59339;BMP280;45117;50.960;5.500;2023-05-29T13:30:24;101453.84;;;22.89
59339;BMP280;45117;50.960;5.500;2023-05-29T13:32:51;101433.34;;;22.13
59339;BMP280;45117;50.960;5.500;2023-05-29T13:35:18;101452.06;;;22.62
59339;BMP280;45117;50.960;5.500;2023-05-29T13:37:45;101449.00;;;22.84
59339;BMP280;45117;50.960;5.500;2023-05-29T13:40:12;101444.25;;;22.70
59339;BMP280;45117;50.960;5.500;2023-05-29T13:42:39;101457.41;;;22.56
59339;BMP280;45117;50.960;5.500;2023-05-29T13:45:07;101444.69;;;22.92
59339;BMP280;45117;50.960;5.500;2023-05-29T13:47:35;101443.19;;;22.10
59339;BMP280;45117;50.960;5.500;2023-05-29T13:50:02;101446.22;;;22.21
59339;BMP280;45117;50.960;5.500;2023-05-29T13:52:29;101438.97;;;22.09
59339;BMP280;45117;50.960;5.500;2023-05-29T13:54:55;101431.06;;;22.11
59339;BMP280;45117;50.960;5.500;2023-05-29T13:57:23;101437.16;;;22.06
59339;BMP280;45117;50.960;5.500;2023-05-29T13:59:49;101430.81;;;21.58
59339;BMP280;45117;50.960;5.500;2023-05-29T14:02:16;101442.53;;;21.91